Terminal Aerodrome Forecast
Issued by NWS Pocatello, ID

Home | Current Version | Previous Version | Text Only | Print | Product List | Glossary On
Versions: 1 2 3 4 5 6 7 8 9 10 11 12 13
398
FTUS45 KPIH 281126
TAFPIH
TAF
KPIH 281126Z 2812/2912 18008KT P6SM SKC
     FM281800 25012G18KT P6SM FEW120 SCT200
     FM290100 20010KT P6SM SKC
     FM290700 VRB05KT P6SM SKC=

USA.gov is the U.S. government's official web portal to all federal, state and local government web resources and services.